Time;durP1;ratioP1;P1;durP2;ratioP2;P2;SDS_P1;SDS_P2;PMS_P1;PMS_P2;Temp;Humidity;BMP_temperature;BMP_pressure;BME280_temperature;BME280_humidity;BME280_pressure;Samples;Min_cycle;Max_cycle;Signal;HPM_P1;HPM_P2
2023/07/13 00:00:47;;;;;;;8.40;3.75;;;;;;;26.06;42.29;101426.88;5018036;28;20056;-28
2023/07/13 00:03:14;;;;;;;10.13;4.22;;;;;;;26.06;42.36;101434.19;5015800;28;20127;-28
2023/07/13 00:05:41;;;;;;;8.02;3.85;;;;;;;26.04;42.51;101420.78;5016510;28;20422;-28
2023/07/13 00:08:08;;;;;;;8.68;4.05;;;;;;;26.03;42.34;101427.25;5012858;28;20152;-28
2023/07/13 00:10:40;;;;;;;8.00;3.42;;;;;;;26.02;42.37;101428.28;5012428;28;20500;-28
2023/07/13 00:13:08;;;;;;;9.55;3.70;;;;;;;26.02;42.50;101420.13;5013823;28;20110;-28
2023/07/13 00:15:35;;;;;;;7.93;3.53;;;;;;;26.00;42.54;101416.75;5011259;28;20045;-28
2023/07/13 00:18:02;;;;;;;8.63;3.92;;;;;;;25.99;42.61;101431.38;5014646;28;20061;-28
2023/07/13 00:20:29;;;;;;;8.98;3.30;;;;;;;26.00;43.00;101424.06;5018412;28;20064;-28
2023/07/13 00:22:56;;;;;;;8.88;4.28;;;;;;;25.99;42.47;101425.94;5020363;28;20623;-28
2023/07/13 00:25:26;;;;;;;8.85;3.78;;;;;;;25.96;42.59;101410.03;5022250;28;20044;-28
2023/07/13 00:27:52;;;;;;;7.90;3.50;;;;;;;25.96;42.79;101420.06;5023784;28;20049;-28
2023/07/13 00:30:19;;;;;;;6.82;3.60;;;;;;;25.95;42.78;101421.94;5019764;28;20510;-28
2023/07/13 00:32:45;;;;;;;7.10;3.30;;;;;;;25.93;43.19;101429.44;5022339;28;20142;-28
2023/07/13 00:35:14;;;;;;;9.23;3.72;;;;;;;25.92;43.01;101422.31;5010228;28;20052;-29
2023/07/13 00:37:42;;;;;;;7.18;3.58;;;;;;;25.91;43.00;101415.19;5010354;28;20057;-28
2023/07/13 00:40:11;;;;;;;7.30;3.92;;;;;;;25.89;43.19;101422.72;5012747;28;20053;-28
2023/07/13 00:42:38;;;;;;;9.07;3.42;;;;;;;25.89;43.35;101421.84;5013343;28;20066;-28
2023/07/13 00:45:11;;;;;;;8.02;3.47;;;;;;;25.87;43.26;101419.34;5029937;28;20049;-28
2023/07/13 00:47:38;;;;;;;7.50;3.63;;;;;;;25.89;43.11;101427.28;5014369;28;20084;-28
2023/07/13 00:50:09;;;;;;;8.25;3.70;;;;;;;25.87;43.22;101421.22;5014892;28;20085;-28
2023/07/13 00:52:40;;;;;;;6.50;3.25;;;;;;;25.86;43.33;101420.38;5012977;28;20272;-28
2023/07/13 00:55:09;;;;;;;6.78;3.55;;;;;;;25.85;43.35;101424.13;5016274;28;20050;-28
2023/07/13 00:57:36;;;;;;;7.28;3.33;;;;;;;25.84;43.25;101419.72;5012267;28;20058;-28
2023/07/13 01:00:06;;;;;;;8.75;3.55;;;;;;;25.83;43.41;101421.59;5016985;28;20050;-28
2023/07/13 01:02:34;;;;;;;9.38;3.92;;;;;;;25.81;43.43;101426.38;5014204;28;20365;-28
2023/07/13 01:05:01;;;;;;;7.13;3.38;;;;;;;25.81;43.54;101430.97;5011572;28;20042;-28
2023/07/13 01:07:28;;;;;;;8.43;3.85;;;;;;;25.80;43.33;101426.56;5014292;28;20046;-28
2023/07/13 01:09:54;;;;;;;7.50;4.05;;;;;;;25.80;43.27;101430.13;5016180;28;20073;-28
2023/07/13 01:12:21;;;;;;;9.45;4.25;;;;;;;25.80;43.53;101429.28;5017063;28;20134;-28
2023/07/13 01:14:48;;;;;;;6.53;3.17;;;;;;;25.77;43.71;101430.53;5015753;28;20136;-28
2023/07/13 01:17:15;;;;;;;7.55;3.42;;;;;;;25.77;43.95;101440.47;5008063;28;20081;-28
2023/07/13 01:19:44;;;;;;;8.30;3.33;;;;;;;25.75;43.54;101427.09;5011382;28;20486;-28
2023/07/13 01:22:14;;;;;;;7.70;3.20;;;;;;;25.76;43.56;101427.94;5012315;28;20081;-28
2023/07/13 01:24:44;;;;;;;8.43;3.20;;;;;;;25.75;43.80;101439.84;5011749;28;20066;-28
2023/07/13 01:27:14;;;;;;;7.93;3.45;;;;;;;25.73;43.77;101437.34;5012856;28;20053;-28
2023/07/13 01:29:43;;;;;;;7.28;3.15;;;;;;;25.73;43.54;101439.19;5014032;28;20053;-28
2023/07/13 01:32:13;;;;;;;5.80;2.65;;;;;;;25.72;44.13;101438.34;5013660;28;20060;-28
2023/07/13 01:34:44;;;;;;;6.00;2.85;;;;;;;25.71;43.93;101442.09;5013572;28;20058;-28
2023/07/13 01:37:12;;;;;;;5.38;2.60;;;;;;;25.71;44.04;101435.81;5014571;28;20056;-28
2023/07/13 01:39:38;;;;;;;5.70;3.03;;;;;;;25.69;44.25;101438.75;5011400;28;20141;-28
2023/07/13 01:42:05;;;;;;;11.40;3.05;;;;;;;25.70;43.87;101445.84;5013187;28;20123;-28
2023/07/13 01:44:32;;;;;;;5.50;2.80;;;;;;;25.69;44.25;101443.31;5013075;28;20046;-28
2023/07/13 01:46:59;;;;;;;9.80;3.10;;;;;;;25.68;43.95;101441.63;5016421;28;20042;-28
2023/07/13 01:49:25;;;;;;;8.88;3.47;;;;;;;25.66;44.32;101455.41;5017965;28;20092;-28
2023/07/13 01:51:52;;;;;;;7.82;3.05;;;;;;;25.65;44.12;101451.03;5018074;28;20049;-28
2023/07/13 01:54:18;;;;;;;5.07;2.92;;;;;;;25.64;44.23;101452.03;5018730;28;20084;-28
2023/07/13 01:56:45;;;;;;;7.15;2.72;;;;;;;25.64;44.32;101457.47;5021230;28;20050;-28
2023/07/13 01:59:12;;;;;;;6.13;2.50;;;;;;;25.63;44.43;101460.38;5021786;28;20049;-28
2023/07/13 02:01:38;;;;;;;5.70;2.78;;;;;;;25.60;44.24;101457.00;5024051;28;20481;-28
2023/07/13 02:04:05;;;;;;;6.78;2.85;;;;;;;25.60;44.47;101459.69;5018032;28;20074;-28
2023/07/13 02:06:32;;;;;;;6.38;3.03;;;;;;;25.58;44.49;101459.06;5010659;28;20042;-27
2023/07/13 02:08:58;;;;;;;6.38;2.42;;;;;;;25.57;44.58;101454.69;5013807;28;20080;-28
2023/07/13 02:11:32;;;;;;;4.85;2.30;;;;;;;25.58;44.33;101456.34;5019938;28;20077;-28
2023/07/13 02:14:03;;;;;;;7.80;2.47;;;;;;;25.57;44.81;101454.69;5017890;28;20084;-28
2023/07/13 02:16:30;;;;;;;6.05;2.38;;;;;;;25.56;44.60;101463.81;5016572;28;20049;-28
2023/07/13 02:18:57;;;;;;;8.50;2.75;;;;;;;25.57;44.66;101470.13;5018091;28;20136;-27
2023/07/13 02:21:24;;;;;;;5.28;2.65;;;;;;;25.55;44.35;101475.72;5023278;28;20123;-28
2023/07/13 02:23:51;;;;;;;7.53;3.22;;;;;;;25.55;44.51;101464.88;5015936;28;20108;-28
2023/07/13 02:26:17;;;;;;;4.97;2.33;;;;;;;25.54;44.96;101459.63;5014146;28;20046;-28
2023/07/13 02:28:44;;;;;;;5.75;2.30;;;;;;;25.54;44.76;101462.34;5008695;28;20049;-28
2023/07/13 02:31:13;;;;;;;5.72;2.70;;;;;;;25.54;44.46;101455.03;5013854;28;20145;-27
2023/07/13 02:33:40;;;;;;;4.32;2.40;;;;;;;25.54;44.84;101460.47;5008638;28;20054;-28
2023/07/13 02:36:07;;;;;;;6.03;2.50;;;;;;;25.55;44.68;101472.16;5010459;28;20464;-28
2023/07/13 02:38:35;;;;;;;6.22;2.47;;;;;;;25.54;44.79;101471.34;5008606;28;20081;-28
2023/07/13 02:41:07;;;;;;;7.32;2.75;;;;;;;25.51;44.94;101469.00;5008552;28;20088;-28
2023/07/13 02:43:34;;;;;;;3.88;2.17;;;;;;;25.52;45.15;101473.38;5012807;28;20050;-28
2023/07/13 02:46:06;;;;;;;7.70;2.33;;;;;;;25.51;44.87;101466.28;5013434;28;20092;-28
2023/07/13 02:48:34;;;;;;;4.13;2.08;;;;;;;25.50;45.01;101467.31;5013485;28;20057;-28
2023/07/13 02:51:01;;;;;;;5.82;2.53;;;;;;;25.50;45.02;101467.31;5010206;28;20046;-28
2023/07/13 02:53:28;;;;;;;5.32;2.90;;;;;;;25.50;44.79;101469.19;5007870;28;21709;-28
2023/07/13 02:55:55;;;;;;;5.35;2.10;;;;;;;25.49;44.96;101465.63;5006684;28;20399;-28
2023/07/13 02:58:21;;;;;;;5.55;2.05;;;;;;;25.49;44.74;101471.06;5016505;28;20073;-28
2023/07/13 03:00:50;;;;;;;3.60;2.08;;;;;;;25.48;45.02;101466.66;5016310;28;20349;-28
2023/07/13 03:03:17;;;;;;;5.22;2.50;;;;;;;25.47;45.06;101470.41;5012840;28;20072;-28
2023/07/13 03:05:49;;;;;;;6.05;2.45;;;;;;;25.46;44.89;101466.00;5015992;28;20046;-28
2023/07/13 03:08:17;;;;;;;6.03;2.33;;;;;;;25.45;45.15;101469.75;5013437;28;20426;-28
2023/07/13 03:10:44;;;;;;;4.43;2.03;;;;;;;25.45;44.89;101477.03;5016884;28;20056;-28
2023/07/13 03:13:11;;;;;;;4.50;2.42;;;;;;;25.44;45.05;101478.06;5022957;28;20096;-27
2023/07/13 03:15:37;;;;;;;6.05;2.42;;;;;;;25.42;45.29;101472.00;5017482;28;20485;-27
2023/07/13 03:18:04;;;;;;;4.63;1.90;;;;;;;25.41;45.23;101468.44;5022854;28;20053;-27
2023/07/13 03:20:35;;;;;;;4.13;2.20;;;;;;;25.41;45.24;101473.00;5021487;28;20390;-27
2023/07/13 03:23:03;;;;;;;4.65;2.35;;;;;;;25.40;45.06;101464.03;5016235;28;20445;-28
2023/07/13 03:25:29;;;;;;;4.35;2.03;;;;;;;25.39;45.01;101465.06;5021123;28;20337;-28
2023/07/13 03:27:56;;;;;;;4.20;2.13;;;;;;;25.38;45.00;101466.09;5020243;28;20073;-28
2023/07/13 03:30:23;;;;;;;6.28;2.65;;;;;;;25.38;45.14;101474.25;5020247;28;20408;-28
2023/07/13 03:32:50;;;;;;;5.50;1.98;;;;;;;25.38;45.10;101478.84;5016872;28;20053;-28
2023/07/13 03:35:17;;;;;;;4.93;1.98;;;;;;;25.37;45.05;101483.44;5022570;28;20045;-27
2023/07/13 03:37:43;;;;;;;5.07;2.35;;;;;;;25.35;45.33;101480.03;5022650;28;20467;-28
2023/07/13 03:40:11;;;;;;;5.28;1.85;;;;;;;25.36;45.32;101482.56;5016003;28;20050;-28
2023/07/13 03:42:38;;;;;;;4.35;1.70;;;;;;;25.35;45.24;101480.03;5016558;28;20073;-27
2023/07/13 03:45:05;;;;;;;4.93;1.90;;;;;;;25.34;45.35;101489.22;5014623;28;20077;-27
2023/07/13 03:47:31;;;;;;;4.20;1.60;;;;;;;25.32;45.14;101481.25;5017732;28;20124;-28
2023/07/13 03:49:58;;;;;;;4.80;1.90;;;;;;;25.33;45.17;101485.66;5018442;28;20437;-28
2023/07/13 03:52:25;;;;;;;4.70;2.08;;;;;;;25.31;45.69;101490.41;5013299;28;20081;-28
2023/07/13 03:54:51;;;;;;;6.10;2.08;;;;;;;25.30;45.65;101487.91;5014039;28;20078;-28
2023/07/13 03:57:18;;;;;;;4.60;1.83;;;;;;;25.30;45.49;101487.91;5017266;28;20046;-28
2023/07/13 03:59:45;;;;;;;7.13;1.90;;;;;;;25.29;45.86;101497.09;5012715;28;20103;-28
2023/07/13 04:02:11;;;;;;;7.03;1.90;;;;;;;25.29;45.87;101497.09;5014971;28;20101;-28
2023/07/13 04:04:40;;;;;;;11.45;2.38;;;;;;;25.28;45.33;101498.94;5015832;28;20137;-28
2023/07/13 04:07:10;;;;;;;8.07;2.78;;;;;;;25.28;45.83;101504.34;5014866;28;20038;-27
2023/07/13 04:09:37;;;;;;;8.25;4.13;;;;;;;25.28;45.80;101503.50;5013483;28;20528;-27
2023/07/13 04:12:04;;;;;;;12.88;3.83;;;;;;;25.27;45.86;101509.97;5019550;28;20096;-27
2023/07/13 04:14:31;;;;;;;9.13;3.58;;;;;;;25.26;45.38;101511.84;5015422;28;20128;-28
2023/07/13 04:16:57;;;;;;;8.15;3.30;;;;;;;25.25;45.56;101506.63;5011878;28;20139;-28
2023/07/13 04:19:24;;;;;;;8.98;3.90;;;;;;;25.26;45.35;101508.31;5015881;28;20077;-27
2023/07/13 04:21:51;;;;;;;6.72;3.33;;;;;;;25.26;45.47;101516.44;5012270;28;20081;-27
2023/07/13 04:24:17;;;;;;;9.45;3.72;;;;;;;25.24;45.77;101513.88;5014415;28;20057;-28
2023/07/13 04:26:44;;;;;;;11.38;4.05;;;;;;;25.24;45.63;101510.34;5014942;28;20116;-27
2023/07/13 04:29:10;;;;;;;11.10;3.83;;;;;;;25.23;45.99;101511.38;5013978;28;20068;-28
2023/07/13 04:31:37;;;;;;;11.40;4.47;;;;;;;25.23;45.72;101514.09;5012597;28;20453;-28
2023/07/13 04:34:04;;;;;;;10.82;3.88;;;;;;;25.23;45.80;101514.09;5011764;28;20054;-27
2023/07/13 04:36:30;;;;;;;16.75;4.13;;;;;;;25.23;45.65;101519.50;5008396;28;20121;-28
2023/07/13 04:38:57;;;;;;;12.02;4.35;;;;;;;25.21;45.52;101522.44;5012449;28;20050;-28
2023/07/13 04:41:23;;;;;;;11.38;4.47;;;;;;;25.22;45.45;101523.25;5014580;28;20092;-28
2023/07/13 04:43:50;;;;;;;8.95;4.40;;;;;;;25.21;45.93;101529.72;5013446;28;20050;-28
2023/07/13 04:46:18;;;;;;;10.23;3.85;;;;;;;25.21;45.37;101529.72;5013490;28;20100;-28
2023/07/13 04:48:45;;;;;;;11.45;4.65;;;;;;;25.21;45.40;101522.44;5013689;28;20088;-28
2023/07/13 04:51:11;;;;;;;16.52;5.07;;;;;;;25.22;45.67;101525.97;5014699;28;20662;-27
2023/07/13 04:53:38;;;;;;;11.38;4.05;;;;;;;25.22;45.93;101518.69;5013599;28;20058;-28
2023/07/13 04:56:05;;;;;;;13.95;5.03;;;;;;;25.22;45.78;101524.09;5014784;28;20049;-28
2023/07/13 04:58:33;;;;;;;9.43;4.25;;;;;;;25.23;45.79;101531.22;5014636;28;20125;-28
2023/07/13 05:01:05;;;;;;;13.73;4.45;;;;;;;25.22;45.48;101526.81;5016919;28;20041;-27
2023/07/13 05:03:32;;;;;;;11.20;4.20;;;;;;;25.24;45.99;101529.34;5012310;28;20050;-28
2023/07/13 05:06:05;;;;;;;14.52;5.32;;;;;;;25.24;45.45;101526.63;5013665;28;20049;-28
2023/07/13 05:08:32;;;;;;;12.45;4.97;;;;;;;25.25;45.62;101520.19;5011309;28;20466;-28
2023/07/13 05:11:04;;;;;;;6.68;3.83;;;;;;;25.26;45.38;101530.00;5012249;28;20545;-28
2023/07/13 05:13:30;;;;;;;11.10;4.25;;;;;;;25.26;45.45;101528.13;5014906;28;20050;-27
2023/07/13 05:15:59;;;;;;;10.95;4.25;;;;;;;25.27;45.46;101537.13;5017227;28;20081;-28
2023/07/13 05:18:27;;;;;;;11.73;3.97;;;;;;;25.27;45.21;101537.13;5011023;28;20046;-28
2023/07/13 05:21:03;;;;;;;9.30;4.43;;;;;;;25.28;45.84;101541.50;5014894;28;20057;-28
2023/07/13 05:23:31;;;;;;;7.15;3.53;;;;;;;25.29;45.25;101537.78;5012010;28;20435;-28
2023/07/13 05:25:57;;;;;;;11.52;3.97;;;;;;;25.29;45.59;101543.22;5015173;28;20112;-28
2023/07/13 05:28:25;;;;;;;10.90;3.70;;;;;;;25.30;45.75;101551.16;5012466;28;20108;-28
2023/07/13 05:30:53;;;;;;;11.05;3.80;;;;;;;25.30;45.63;101548.44;5015811;28;20058;-27
2023/07/13 05:33:20;;;;;;;10.35;3.28;;;;;;;25.31;45.46;101550.13;5011385;28;20108;-28
2023/07/13 05:35:47;;;;;;;9.60;4.03;;;;;;;25.32;46.00;101545.53;5016522;28;20081;-28
2023/07/13 05:38:14;;;;;;;8.13;3.05;;;;;;;25.33;45.91;101544.53;5012228;28;20080;-31
2023/07/13 05:40:43;;;;;;;12.05;3.70;;;;;;;25.34;45.77;101552.47;5012473;28;20066;-28
2023/07/13 05:43:11;;;;;;;12.10;3.60;;;;;;;25.36;45.41;101549.56;5015604;28;20049;-28
2023/07/13 05:45:37;;;;;;;12.18;4.28;;;;;;;25.38;45.87;101554.81;5013726;28;20084;-28
2023/07/13 05:48:04;;;;;;;11.25;3.70;;;;;;;25.36;45.70;101555.81;5013460;28;20158;-28
2023/07/13 05:50:31;;;;;;;11.60;3.80;;;;;;;25.36;45.61;101563.97;5012995;28;20050;-28
2023/07/13 05:52:58;;;;;;;9.77;3.45;;;;;;;25.37;46.01;101564.84;5011079;28;20085;-28
2023/07/13 05:55:24;;;;;;;13.88;3.78;;;;;;;25.38;45.41;101568.41;5011333;28;20072;-28
2023/07/13 05:57:51;;;;;;;7.72;3.25;;;;;;;25.38;45.38;101571.94;5011782;28;20046;-28
2023/07/13 06:00:18;;;;;;;10.25;3.63;;;;;;;25.39;45.94;101570.91;5012629;28;20140;-28
2023/07/13 06:02:44;;;;;;;8.23;3.42;;;;;;;25.40;45.81;101563.59;5017267;28;20080;-28
2023/07/13 06:05:11;;;;;;;7.72;2.95;;;;;;;25.40;45.60;101574.47;5020758;28;20346;-28
2023/07/13 06:07:38;;;;;;;10.23;3.30;;;;;;;25.40;45.72;101575.31;5019385;28;20201;-28
2023/07/13 06:10:05;;;;;;;14.45;4.25;;;;;;;25.41;45.54;101578.84;5018419;28;20038;-28
2023/07/13 06:12:31;;;;;;;12.93;4.40;;;;;;;25.41;45.41;101579.72;5013781;28;20045;-28
2023/07/13 06:14:58;;;;;;;16.60;4.18;;;;;;;25.42;45.74;101597.69;5013187;28;20057;-28
2023/07/13 06:17:25;;;;;;;13.27;4.05;;;;;;;25.41;45.88;101598.72;5014486;28;20149;-28
2023/07/13 06:19:51;;;;;;;18.25;4.10;;;;;;;25.41;46.08;101596.00;5017603;28;20054;-28
2023/07/13 06:22:18;;;;;;;12.90;4.32;;;;;;;25.43;45.98;101590.38;5011707;28;20376;-28
2023/07/13 06:24:45;;;;;;;14.07;4.05;;;;;;;25.42;45.81;101589.53;5009306;28;20050;-28
2023/07/13 06:27:11;;;;;;;16.50;4.10;;;;;;;25.42;45.60;101594.97;5023581;28;20099;-28
2023/07/13 06:29:39;;;;;;;14.85;3.83;;;;;;;25.43;45.66;101602.09;5015681;28;20411;-28
2023/07/13 06:32:06;;;;;;;10.88;3.25;;;;;;;25.43;46.31;101590.38;5017200;28;20041;-27
2023/07/13 06:34:33;;;;;;;14.80;4.03;;;;;;;25.45;46.13;101582.88;5011972;28;20819;-28
2023/07/13 06:37:00;;;;;;;12.82;4.10;;;;;;;25.46;45.95;101584.59;5013670;28;20060;-28
2023/07/13 06:39:26;;;;;;;17.08;4.22;;;;;;;25.46;46.36;101590.88;5015663;28;20050;-28
2023/07/13 06:41:53;;;;;;;13.57;3.65;;;;;;;25.47;46.01;101600.69;5016798;28;20141;-28
2023/07/13 06:44:19;;;;;;;12.18;4.13;;;;;;;25.46;46.23;101601.72;5046554;28;20073;-28
2023/07/13 06:46:46;;;;;;;14.75;4.63;;;;;;;25.46;45.80;101618.00;5011842;28;20050;-28
2023/07/13 06:49:13;;;;;;;8.63;2.90;;;;;;;25.45;46.17;101613.63;5016241;28;20057;-28
2023/07/13 06:51:39;;;;;;;10.13;3.60;;;;;;;25.45;46.22;101623.59;5017749;28;20512;-28
2023/07/13 06:54:06;;;;;;;10.27;3.10;;;;;;;25.43;46.26;101623.78;5017164;28;20123;-28
2023/07/13 06:56:32;;;;;;;12.85;3.53;;;;;;;25.43;46.50;101626.50;5017190;28;20080;-28
2023/07/13 06:58:59;;;;;;;15.60;3.60;;;;;;;25.40;46.38;101635.00;5015992;28;20054;-28
2023/07/13 07:01:26;;;;;;;8.32;3.00;;;;;;;25.36;46.19;101639.97;5014784;28;20119;-28
2023/07/13 07:03:52;;;;;;;9.27;3.13;;;;;;;25.34;46.22;101647.44;5019659;28;20056;-28
2023/07/13 07:06:23;;;;;;;12.40;3.45;;;;;;;25.32;46.18;101651.38;5016067;28;20383;-28
2023/07/13 07:08:51;;;;;;;8.93;2.92;;;;;;;25.29;46.58;101644.47;5016169;28;20053;-28
2023/07/13 07:11:23;;;;;;;8.68;2.92;;;;;;;25.29;46.30;101643.63;5014561;28;20385;-28
2023/07/13 07:13:52;;;;;;;6.78;2.65;;;;;;;25.28;46.55;101631.06;5015267;28;20050;-28
2023/07/13 07:16:20;;;;;;;7.20;2.53;;;;;;;25.28;46.52;101631.06;5015866;28;20046;-28
2023/07/13 07:18:47;;;;;;;8.60;3.20;;;;;;;25.26;46.06;101623.09;5015507;28;20058;-28
2023/07/13 07:21:14;;;;;;;6.55;2.55;;;;;;;25.26;46.33;101627.69;5014578;28;20056;-28
2023/07/13 07:23:42;;;;;;;8.40;2.63;;;;;;;25.26;46.41;101633.13;5013825;28;20139;-28
2023/07/13 07:26:10;;;;;;;7.55;2.85;;;;;;;25.25;46.07;101626.84;5015018;28;20081;-28
2023/07/13 07:28:36;;;;;;;6.13;2.75;;;;;;;25.25;45.86;101624.13;5014641;28;20422;-28
2023/07/13 07:31:06;;;;;;;7.50;2.58;;;;;;;25.27;46.28;101626.66;5017552;28;20112;-28
2023/07/13 07:33:35;;;;;;;6.82;2.97;;;;;;;25.27;46.13;101629.38;5016464;28;20072;-28
2023/07/13 07:36:03;;;;;;;5.53;2.65;;;;;;;25.28;46.10;101636.47;5021908;28;20053;-28
2023/07/13 07:38:32;;;;;;;7.82;2.63;;;;;;;25.29;46.30;101635.47;5020244;28;20149;-28
2023/07/13 07:41:03;;;;;;;8.57;2.80;;;;;;;25.30;46.30;101634.44;5022220;28;20476;-28
2023/07/13 07:43:32;;;;;;;5.57;2.47;;;;;;;25.30;46.44;101645.28;5019656;28;20085;-28
2023/07/13 07:45:59;;;;;;;7.30;2.83;;;;;;;25.31;46.46;101638.84;5013795;28;20132;-28
2023/07/13 07:48:33;;;;;;;7.10;2.47;;;;;;;25.33;46.22;101639.50;5018320;28;20056;-28
2023/07/13 07:51:00;;;;;;;7.72;2.33;;;;;;;25.34;46.06;101643.91;5018177;28;20077;-28
2023/07/13 07:53:26;;;;;;;5.80;2.47;;;;;;;25.35;46.52;101642.88;5021453;28;20096;-28
2023/07/13 07:55:53;;;;;;;7.95;2.20;;;;;;;25.37;46.16;101643.53;5018183;28;20045;-28
2023/07/13 07:58:23;;;;;;;5.70;2.45;;;;;;;25.38;46.45;101641.66;5015032;28;20164;-28
2023/07/13 08:00:52;;;;;;;4.53;2.33;;;;;;;25.39;46.38;101627.91;5018630;28;20049;-28
2023/07/13 08:03:22;;;;;;;5.18;2.00;;;;;;;25.42;46.20;101626.69;5018357;28;20049;-28
2023/07/13 08:05:54;;;;;;;6.63;2.35;;;;;;;25.43;46.45;101634.66;5012573;28;20053;-29
2023/07/13 08:08:24;;;;;;;6.05;2.63;;;;;;;25.44;46.04;101641.75;5016118;28;20138;-29
2023/07/13 08:10:51;;;;;;;5.85;2.58;;;;;;;25.45;46.02;101643.47;5013713;28;20128;-29
2023/07/13 08:13:22;;;;;;;7.28;1.98;;;;;;;25.45;46.43;101646.19;5017544;28;20084;-29
2023/07/13 08:15:50;;;;;;;5.60;2.00;;;;;;;25.45;46.41;101651.63;5011464;28;20149;-29
2023/07/13 08:18:17;;;;;;;7.20;1.90;;;;;;;25.45;46.03;101650.75;5019649;28;20045;-29
2023/07/13 08:20:44;;;;;;;8.50;2.90;;;;;;;25.44;46.28;101651.78;5015771;28;20481;-29
2023/07/13 08:23:11;;;;;;;3.60;2.10;;;;;;;25.44;46.25;101658.03;5014450;28;20062;-29
2023/07/13 08:25:38;;;;;;;5.63;2.33;;;;;;;25.44;46.20;101654.50;5013257;28;20236;-29
2023/07/13 08:28:04;;;;;;;4.60;1.92;;;;;;;25.43;46.05;101653.66;5015083;28;20046;-29
2023/07/13 08:30:31;;;;;;;4.97;2.30;;;;;;;25.42;46.22;101662.84;5017436;28;20053;-29
2023/07/13 08:32:58;;;;;;;6.03;1.92;;;;;;;25.41;46.09;101668.41;5007595;28;20050;-29
2023/07/13 08:35:25;;;;;;;4.38;2.20;;;;;;;25.39;46.26;101686.78;5008778;28;20080;-29
2023/07/13 08:37:52;;;;;;;5.88;2.13;;;;;;;25.36;46.12;101687.97;5011479;28;20342;-29
2023/07/13 08:40:25;;;;;;;6.30;1.92;;;;;;;25.31;46.06;101685.81;5011710;28;20054;-29
2023/07/13 08:42:58;;;;;;;6.38;1.95;;;;;;;25.28;46.10;101678.03;5010248;28;20441;-29
2023/07/13 08:45:46;;;;;;;6.07;2.10;;;;;;;25.25;46.43;101658.56;5013306;28;20056;-29
2023/07/13 08:48:26;;;;;;;5.82;2.10;;;;;;;25.25;46.39;101666.72;5007042;28;20095;-29
2023/07/13 08:51:17;;;;;;;4.35;2.25;;;;;;;25.24;46.68;101665.00;5012378;28;20050;-29
2023/07/13 08:53:51;;;;;;;5.55;2.22;;;;;;;25.26;46.58;101662.97;4981009;28;20537;-29
2023/07/13 08:56:29;;;;;;;5.45;2.22;;;;;;;25.25;46.71;101666.72;5016297;28;20095;-29
2023/07/13 08:59:00;;;;;;;6.68;2.10;;;;;;;25.28;46.28;101663.63;5013673;28;20082;-29
2023/07/13 09:01:32;;;;;;;4.55;2.00;;;;;;;25.27;46.63;101656.50;5015079;28;20050;-29
2023/07/13 09:04:13;;;;;;;4.80;2.10;;;;;;;25.28;46.69;101658.19;5014205;28;20053;-29
2023/07/13 09:06:53;;;;;;;6.30;2.42;;;;;;;25.28;46.32;101659.03;5015547;28;20052;-29
2023/07/13 09:09:33;;;;;;;3.97;1.58;;;;;;;25.29;46.46;101654.47;5018019;28;20045;-29
2023/07/13 09:12:05;;;;;;;4.20;1.80;;;;;;;25.31;46.00;101652.41;5013995;28;20581;-29
2023/07/13 09:14:38;;;;;;;3.72;1.70;;;;;;;25.31;45.93;101649.69;5018334;28;20049;-29
2023/07/13 09:17:31;;;;;;;4.10;1.53;;;;;;;25.31;46.14;101652.41;5014998;28;20053;-29
2023/07/13 09:20:31;;;;;;;5.30;1.83;;;;;;;25.31;46.33;101669.53;5011204;28;20068;-29
2023/07/13 09:23:06;;;;;;;6.47;2.15;;;;;;;25.32;46.28;101675.78;5007770;28;20389;-29
2023/07/13 09:25:36;;;;;;;6.57;1.90;;;;;;;25.31;46.26;101679.53;5017370;28;20342;-29
2023/07/13 09:28:19;;;;;;;4.60;1.70;;;;;;;25.31;46.52;101690.41;5013346;28;20045;-29
2023/07/13 09:31:03;;;;;;;3.78;1.38;;;;;;;25.34;46.79;101687.31;5016266;28;20091;-29
2023/07/13 09:33:31;;;;;;;3.78;1.70;;;;;;;25.40;46.49;101686.59;5014142;28;20100;-29
2023/07/13 09:35:58;;;;;;;6.55;1.58;;;;;;;25.46;46.43;101688.56;5015339;28;20046;-29
2023/07/13 09:38:29;;;;;;;5.57;1.63;;;;;;;25.53;46.39;101675.97;5017625;28;20100;-29
2023/07/13 09:41:03;;;;;;;4.82;1.70;;;;;;;25.62;46.69;101681.31;5008748;28;20057;-29
2023/07/13 09:43:29;;;;;;;4.10;1.95;;;;;;;25.68;46.71;101688.72;5017291;28;20161;-29
2023/07/13 09:45:56;;;;;;;4.63;1.65;;;;;;;25.72;46.96;101692.75;5015327;28;20127;-29
2023/07/13 09:48:24;;;;;;;6.18;1.70;;;;;;;25.75;46.68;101689.69;5017792;28;20115;-29
2023/07/13 09:50:55;;;;;;;3.65;1.58;;;;;;;25.76;46.65;101688.63;5014981;28;20101;-29
2023/07/13 09:53:23;;;;;;;3.92;1.90;;;;;;;25.78;46.51;101698.34;5012478;28;20050;-29
2023/07/13 09:55:50;;;;;;;5.57;1.73;;;;;;;25.78;46.41;101698.34;5014279;28;20129;-29
2023/07/13 09:58:23;;;;;;;6.53;1.75;;;;;;;25.78;46.43;101698.34;5016056;28;20042;-29
2023/07/13 10:00:58;;;;;;;3.47;1.52;;;;;;;25.78;46.51;101697.50;5012216;28;20045;-29
2023/07/13 10:03:32;;;;;;;4.10;1.80;;;;;;;25.79;46.15;101697.31;5011818;28;20057;-29
2023/07/13 10:06:23;;;;;;;5.60;2.05;;;;;;;25.76;46.07;101696.78;5014608;28;20053;-29
2023/07/13 10:08:51;;;;;;;9.05;2.05;;;;;;;25.75;46.14;101698.66;5013295;28;20330;-29
2023/07/13 10:11:22;;;;;;;4.07;1.83;;;;;;;25.76;45.95;101707.66;5012919;28;20454;-29
2023/07/13 10:14:01;;;;;;;5.43;1.80;;;;;;;25.74;46.31;101707.00;5011527;28;20345;-29
2023/07/13 10:16:32;;;;;;;3.45;1.70;;;;;;;25.76;46.03;101705.78;5010593;28;20045;-29
2023/07/13 10:19:10;;;;;;;6.32;1.95;;;;;;;25.79;46.41;101705.44;5007995;28;20368;-29
2023/07/13 10:21:51;;;;;;;11.75;1.95;;;;;;;25.84;46.29;101707.59;5014875;28;20456;-28
2023/07/13 10:24:20;;;;;;;4.50;2.08;;;;;;;25.90;46.17;101706.03;5020320;28;20049;-29
2023/07/13 10:26:53;;;;;;;3.45;1.77;;;;;;;25.95;46.49;101715.31;5010694;28;20062;-29
2023/07/13 10:29:22;;;;;;;7.00;2.22;;;;;;;26.00;46.51;101712.88;5018571;28;20084;-29
2023/07/13 10:31:50;;;;;;;4.97;1.67;;;;;;;26.03;46.65;101707.06;5011996;28;20050;-29
2023/07/13 10:34:17;;;;;;;7.28;1.92;;;;;;;26.05;46.50;101718.63;5004477;28;20440;-29
2023/07/13 10:36:47;;;;;;;4.95;1.75;;;;;;;26.06;46.39;101719.44;5007340;28;20050;-29
2023/07/13 10:39:18;;;;;;;5.18;1.60;;;;;;;26.08;46.36;101722.81;5007041;28;20609;-29
2023/07/13 10:41:50;;;;;;;6.10;1.85;;;;;;;26.11;46.40;101727.03;5012127;28;20124;-29
2023/07/13 10:44:26;;;;;;;6.25;2.20;;;;;;;26.14;46.07;101724.81;5011464;28;20050;-29
2023/07/13 10:46:57;;;;;;;8.75;2.25;;;;;;;26.18;46.10;101720.69;5012015;28;20054;-29
2023/07/13 10:49:24;;;;;;;7.57;2.03;;;;;;;26.21;46.32;101724.88;5012104;28;20042;-29
2023/07/13 10:51:51;;;;;;;6.03;2.35;;;;;;;26.24;46.26;101730.78;5008552;28;20108;-29
2023/07/13 10:54:37;;;;;;;3.80;1.88;;;;;;;26.25;46.14;101732.50;5013460;28;20092;-29
2023/07/13 10:57:10;;;;;;;5.80;2.00;;;;;;;26.27;46.09;101732.31;5012676;28;20053;-29
2023/07/13 10:59:37;;;;;;;;;;;;;;;26.27;46.15;101743.16;5014027;28;20045;-29
2023/07/13 11:02:06;;;;;;;5.63;1.80;;;;;;;26.29;46.07;101754.69;5014886;28;20016;-29
2023/07/13 11:04:49;;;;;;;3.25;1.75;;;;;;;26.25;45.95;101756.97;5016494;28;20042;-29
2023/07/13 11:07:31;;;;;;;4.38;1.75;;;;;;;26.25;46.02;101747.94;5013470;28;20041;-29
2023/07/13 11:10:03;;;;;;;5.13;1.90;;;;;;;26.26;46.11;101746.94;5013888;28;20133;-29
2023/07/13 11:12:47;;;;;;;5.63;1.88;;;;;;;26.26;46.07;101744.22;5012859;28;20196;-29
2023/07/13 11:15:44;;;;;;;3.83;1.70;;;;;;;26.24;46.00;101749.81;5011224;28;20085;-29
2023/07/13 11:18:23;;;;;;;6.10;1.60;;;;;;;26.24;46.06;101740.81;5012034;28;20505;-29
2023/07/13 11:20:50;;;;;;;4.57;1.38;;;;;;;26.24;46.00;101743.53;5018385;28;20452;-29
2023/07/13 11:23:17;;;;;;;5.28;1.83;;;;;;;26.23;45.99;101747.28;5015584;28;20054;-29
2023/07/13 11:25:44;;;;;;;6.38;2.20;;;;;;;26.22;46.05;101741.03;5017795;28;20108;-29
2023/07/13 11:28:11;;;;;;;5.93;1.85;;;;;;;26.20;46.14;101747.66;5015512;28;20426;-29
2023/07/13 11:30:42;;;;;;;5.15;1.35;;;;;;;26.22;45.96;101748.34;5016305;28;20053;-29
2023/07/13 11:33:24;;;;;;;6.32;1.55;;;;;;;26.20;45.69;101751.22;5016105;28;20076;-29